createdAt,value
2022-10-16T00:00:02.718Z,98108.94
2022-10-16T00:03:04.225Z,98101.97
2022-10-16T00:06:05.828Z,98101.97
2022-10-16T00:09:07.280Z,98101.13
2022-10-16T00:12:08.820Z,98093.31
2022-10-16T00:15:10.273Z,98099.41
2022-10-16T00:18:11.614Z,98114.25
2022-10-16T00:21:17.242Z,98110.66
2022-10-16T00:24:18.660Z,98109.75
2022-10-16T00:27:20.075Z,98103.66
2022-10-16T00:30:21.468Z,98101.13
2022-10-16T00:33:22.948Z,98100.28
2022-10-16T00:36:24.865Z,98103.84
2022-10-16T00:39:26.820Z,98109.00
2022-10-16T00:42:28.548Z,98110.72
2022-10-16T00:45:30.050Z,98111.69
2022-10-16T00:48:31.395Z,98111.63
2022-10-16T00:51:34.070Z,98096.78
2022-10-16T00:54:35.457Z,98104.59
2022-10-16T00:57:37.027Z,98099.38
2022-10-16T01:00:38.682Z,98099.38
2022-10-16T01:03:40.050Z,98104.63
2022-10-16T01:06:47.678Z,98109.00
2022-10-16T01:09:51.998Z,98113.50
2022-10-16T01:12:53.322Z,98109.16
2022-10-16T01:16:14.921Z,98116.91
2022-10-16T01:19:39.524Z,98109.84
2022-10-16T01:22:56.220Z,98110.72
2022-10-16T01:25:57.513Z,98113.34
2022-10-16T01:29:09.895Z,98119.56
2022-10-16T01:32:19.038Z,98120.34
2022-10-16T01:35:22.265Z,98116.00
2022-10-16T01:38:27.781Z,98116.13
2022-10-16T01:41:31.351Z,98116.06
2022-10-16T01:44:33.376Z,98119.66
2022-10-16T01:47:34.704Z,98119.66
2022-10-16T01:50:36.747Z,98109.16
2022-10-16T01:53:38.153Z,98111.78
2022-10-16T01:56:39.494Z,98103.91
2022-10-16T01:59:43.270Z,98089.09
2022-10-16T02:02:45.649Z,98100.50
2022-10-16T02:05:51.589Z,98099.84
2022-10-16T02:08:52.967Z,98104.19
2022-10-16T02:11:54.849Z,98100.59
2022-10-16T02:14:56.247Z,98098.06
2022-10-16T02:17:57.623Z,98102.38
2022-10-16T02:21:00.452Z,98099.00
2022-10-16T02:24:14.134Z,98100.75
2022-10-16T02:27:20.300Z,98101.66
2022-10-16T02:30:35.036Z,98098.22
2022-10-16T02:33:37.284Z,98096.56
2022-10-16T02:36:38.642Z,98091.38
2022-10-16T02:39:40.006Z,98101.88
2022-10-16T02:42:41.446Z,98112.44
2022-10-16T02:45:42.830Z,98106.31
2022-10-16T02:48:44.206Z,98103.59
2022-10-16T02:51:45.525Z,98097.47
2022-10-16T02:54:46.927Z,98093.09
2022-10-16T02:57:48.670Z,98108.91
2022-10-16T03:00:50.067Z,98108.06
2022-10-16T03:03:51.489Z,98111.59
2022-10-16T03:06:52.876Z,98112.50
2022-10-16T03:09:55.531Z,98108.13
2022-10-16T03:12:56.855Z,98106.41
2022-10-16T03:15:58.199Z,98106.34
2022-10-16T03:18:59.557Z,98112.47
2022-10-16T03:22:00.915Z,98104.63
2022-10-16T03:25:02.288Z,98109.03
2022-10-16T03:28:04.177Z,98104.69
2022-10-16T03:31:05.561Z,98101.25
2022-10-16T03:34:06.980Z,98105.59
2022-10-16T03:37:08.329Z,98106.41
2022-10-16T03:40:09.842Z,98107.28
2022-10-16T03:43:11.460Z,98107.31
2022-10-16T03:46:12.863Z,98105.59
2022-10-16T03:49:14.232Z,98099.56
2022-10-16T03:52:15.635Z,98098.69
2022-10-16T03:55:17.062Z,98099.50
2022-10-16T03:58:18.424Z,98116.09
2022-10-16T04:01:19.814Z,98114.41
2022-10-16T04:04:21.259Z,98116.09
2022-10-16T04:07:22.927Z,98110.88
2022-10-16T04:10:24.463Z,98118.81
2022-10-16T04:13:25.834Z,98118.00
2022-10-16T04:16:27.176Z,98125.03
2022-10-16T04:19:28.514Z,98125.13
2022-10-16T04:22:29.851Z,98121.69
2022-10-16T04:25:31.261Z,98126.97
2022-10-16T04:28:32.664Z,98118.34
2022-10-16T04:31:34.265Z,98126.19
2022-10-16T04:34:35.722Z,98117.50
2022-10-16T04:37:37.080Z,98118.44
2022-10-16T04:40:38.499Z,98128.97
2022-10-16T04:43:39.853Z,98117.63
2022-10-16T04:46:41.222Z,98109.91
2022-10-16T04:49:42.626Z,98120.38
2022-10-16T04:52:43.955Z,98124.75
2022-10-16T04:55:45.443Z,98124.75
2022-10-16T04:58:46.781Z,98123.00
2022-10-16T05:01:48.222Z,98133.50
2022-10-16T05:04:49.633Z,98135.22
2022-10-16T05:07:51.089Z,98139.63
2022-10-16T05:10:52.493Z,98141.38
2022-10-16T05:13:55.832Z,98140.47
2022-10-16T05:16:57.420Z,98140.47
2022-10-16T05:19:58.759Z,98155.31
2022-10-16T05:23:00.198Z,98155.34
2022-10-16T05:26:01.654Z,98163.31
2022-10-16T05:29:04.037Z,98165.03
2022-10-16T05:32:05.432Z,98158.03
2022-10-16T05:35:10.086Z,98162.41
2022-10-16T05:38:13.970Z,98161.50
2022-10-16T05:41:15.389Z,98165.88
2022-10-16T05:44:16.832Z,98169.38
2022-10-16T05:47:18.196Z,98170.19
2022-10-16T05:50:19.538Z,98162.28
2022-10-16T05:53:26.390Z,98157.78
2022-10-16T05:56:27.791Z,98161.25
2022-10-16T05:59:29.310Z,98177.00
2022-10-16T06:02:30.666Z,98179.63
2022-10-16T06:05:32.009Z,98182.25
2022-10-16T06:08:33.363Z,98190.06
2022-10-16T06:11:34.815Z,98185.69
2022-10-16T06:14:36.265Z,98174.31
2022-10-16T06:17:37.668Z,98178.59
2022-10-16T06:20:39.101Z,98175.84
2022-10-16T06:23:40.523Z,98183.69
2022-10-16T06:26:41.874Z,98187.19
2022-10-16T06:29:44.125Z,98204.66
2022-10-16T06:32:45.554Z,98192.38
2022-10-16T06:35:46.908Z,98198.47
2022-10-16T06:38:48.252Z,98207.19
2022-10-16T06:41:49.981Z,98208.91
2022-10-16T06:44:51.445Z,98214.03
2022-10-16T06:47:52.770Z,98219.28
2022-10-16T06:50:57.656Z,98218.31
2022-10-16T06:54:03.773Z,98229.53
2022-10-16T06:57:05.602Z,98226.84
2022-10-16T07:00:07.154Z,98223.34
2022-10-16T07:03:08.502Z,98227.69
2022-10-16T07:06:10.210Z,98237.19
2022-10-16T07:09:11.622Z,98241.38
2022-10-16T07:12:13.006Z,98247.44
2022-10-16T07:15:14.490Z,98254.34
2022-10-16T07:18:15.830Z,98265.59
2022-10-16T07:21:18.018Z,98258.44
2022-10-16T07:24:19.415Z,98269.69
2022-10-16T07:27:23.178Z,98265.31
2022-10-16T07:30:24.534Z,98269.66
2022-10-16T07:33:25.866Z,98279.22
2022-10-16T07:36:27.217Z,98274.75
2022-10-16T07:39:28.561Z,98279.94
2022-10-16T07:42:29.941Z,98287.75
2022-10-16T07:45:31.303Z,98291.19
2022-10-16T07:48:33.066Z,98296.44
2022-10-16T07:51:34.495Z,98297.31
2022-10-16T07:54:35.850Z,98301.59
2022-10-16T07:57:37.203Z,98300.66
2022-10-16T08:00:38.644Z,98291.75
2022-10-16T08:03:42.493Z,98291.59
2022-10-16T08:06:44.047Z,98294.13
2022-10-16T08:09:45.383Z,98298.31
2022-10-16T08:12:46.795Z,98291.06
2022-10-16T08:15:48.143Z,98298.66
2022-10-16T08:18:49.887Z,98295.66
2022-10-16T08:21:51.223Z,98291.13
2022-10-16T08:24:52.568Z,98293.09
2022-10-16T08:27:54.012Z,98292.97
2022-10-16T08:30:57.418Z,98297.13
2022-10-16T08:33:58.842Z,98289.53
2022-10-16T08:37:00.175Z,98288.03
2022-10-16T08:40:01.554Z,98289.75
2022-10-16T08:43:18.153Z,98299.16
2022-10-16T08:46:28.214Z,98334.88
2022-10-16T08:49:29.613Z,98397.38
2022-10-16T08:52:31.785Z,98424.81
2022-10-16T08:55:40.772Z,98445.97
2022-10-16T08:58:42.143Z,98479.69
2022-10-16T09:01:46.856Z,98541.47
2022-10-16T09:04:56.294Z,98592.72
2022-10-16T09:08:13.659Z,98593.81
2022-10-16T09:11:21.242Z,98600.16
2022-10-16T09:14:38.173Z,98610.34
2022-10-16T09:17:46.891Z,98616.38
2022-10-16T09:20:57.914Z,98612.31
2022-10-16T09:24:09.315Z,98627.13
2022-10-16T09:27:14.190Z,98624.28
2022-10-16T09:30:16.893Z,98639.19
2022-10-16T09:33:19.260Z,98639.31
2022-10-16T09:36:20.641Z,98648.41
2022-10-16T09:39:21.989Z,98641.06
2022-10-16T09:42:23.286Z,98650.53
2022-10-16T09:45:24.830Z,98649.81
2022-10-16T09:48:27.734Z,98635.34
2022-10-16T09:51:30.037Z,98636.88
2022-10-16T09:54:31.404Z,98641.38
2022-10-16T09:57:32.828Z,98655.22
2022-10-16T10:00:34.197Z,98650.31
2022-10-16T10:03:39.320Z,98645.19
2022-10-16T10:06:49.908Z,98661.91
2022-10-16T10:09:51.247Z,98667.84
2022-10-16T10:12:52.653Z,98668.53
2022-10-16T10:15:53.995Z,98664.66
2022-10-16T10:19:01.694Z,98663.47
2022-10-16T10:22:03.102Z,98659.41
2022-10-16T10:25:04.521Z,98652.47
2022-10-16T10:28:05.840Z,98652.53
2022-10-16T10:31:19.339Z,98659.41
2022-10-16T10:34:39.175Z,98665.44
2022-10-16T10:37:59.619Z,98663.31
2022-10-16T10:41:19.232Z,98672.06
2022-10-16T10:44:24.325Z,98665.06
2022-10-16T10:47:28.472Z,98668.66
2022-10-16T10:50:32.825Z,98673.03
2022-10-16T10:53:43.323Z,98666.31
2022-10-16T10:57:03.467Z,98664.91
2022-10-16T11:00:07.724Z,98645.16
2022-10-16T11:03:24.235Z,98661.53
2022-10-16T11:06:27.557Z,98663.44
2022-10-16T11:09:29.497Z,98640.31
2022-10-16T11:12:31.447Z,98661.75
2022-10-16T11:15:33.705Z,98658.84
2022-10-16T11:18:59.015Z,98666.44
2022-10-16T11:22:18.658Z,98661.50
2022-10-16T11:25:19.966Z,98673.97
2022-10-16T11:28:21.486Z,98665.69
2022-10-16T11:31:25.700Z,98673.03
2022-10-16T11:34:30.789Z,98662.53
2022-10-16T11:37:35.301Z,98650.56
2022-10-16T11:40:38.421Z,98651.34
2022-10-16T11:43:40.582Z,98660.38
2022-10-16T11:46:58.297Z,98654.00
2022-10-16T11:50:05.844Z,98658.88
2022-10-16T11:53:22.951Z,98656.63
2022-10-16T11:56:24.530Z,98657.13
2022-10-16T11:59:28.898Z,98658.50
2022-10-16T12:02:30.379Z,98648.28
2022-10-16T12:05:53.846Z,98650.41
2022-10-16T12:08:55.268Z,98638.09
2022-10-16T12:11:56.626Z,98633.03
2022-10-16T12:15:22.290Z,98644.69
2022-10-16T12:18:27.358Z,98639.72
2022-10-16T12:21:31.017Z,98636.66
2022-10-16T12:24:37.269Z,98624.50
2022-10-16T12:27:38.710Z,98646.75
2022-10-16T12:30:40.829Z,98648.25
2022-10-16T12:33:43.139Z,98649.97
2022-10-16T12:36:44.476Z,98644.88
2022-10-16T12:39:45.987Z,98643.97
2022-10-16T12:42:47.357Z,98638.50
2022-10-16T12:45:48.700Z,98643.19
2022-10-16T12:49:06.014Z,98637.88
2022-10-16T12:52:24.503Z,98637.78
2022-10-16T12:55:26.109Z,98623.59
2022-10-16T12:58:30.552Z,98624.56
2022-10-16T13:01:41.294Z,98616.13
2022-10-16T13:04:45.744Z,98611.75
2022-10-16T13:07:47.257Z,98615.50
2022-10-16T13:10:57.464Z,98620.66
2022-10-16T13:13:58.745Z,98621.25
2022-10-16T13:17:04.063Z,98613.38
2022-10-16T13:20:11.586Z,98622.03
2022-10-16T13:23:16.743Z,98626.31
2022-10-16T13:26:23.885Z,98611.25
2022-10-16T13:29:25.399Z,98618.94
2022-10-16T13:32:26.977Z,98609.75
2022-10-16T13:35:29.203Z,98612.47
2022-10-16T13:38:33.036Z,98619.00
2022-10-16T13:41:34.348Z,98624.91
2022-10-16T13:44:43.582Z,98622.59
2022-10-16T13:47:44.928Z,98628.72
2022-10-16T13:50:46.241Z,98628.31
2022-10-16T13:53:47.612Z,98629.56
2022-10-16T13:56:57.791Z,98628.41
2022-10-16T14:00:04.467Z,98619.19
2022-10-16T14:03:06.611Z,98621.53
2022-10-16T14:06:10.116Z,98626.38
2022-10-16T14:09:27.548Z,98627.75
2022-10-16T14:12:29.013Z,98621.56
2022-10-16T14:15:31.556Z,98626.53
2022-10-16T14:18:33.529Z,98623.16
2022-10-16T14:21:37.137Z,98627.69
2022-10-16T14:24:38.471Z,98622.09
2022-10-16T14:27:39.803Z,98627.19
2022-10-16T14:30:50.143Z,98624.44
2022-10-16T14:33:51.589Z,98625.59
2022-10-16T14:36:52.970Z,98620.47
2022-10-16T14:39:54.402Z,98621.13
2022-10-16T14:42:55.860Z,98627.06
2022-10-16T14:45:57.208Z,98615.78
2022-10-16T14:49:19.174Z,98620.94
2022-10-16T14:52:20.534Z,98624.50
2022-10-16T14:55:21.931Z,98626.06
2022-10-16T14:58:23.505Z,98631.56
2022-10-16T15:01:24.817Z,98629.06
2022-10-16T15:04:26.211Z,98636.91
2022-10-16T15:07:27.874Z,98632.78
2022-10-16T15:10:29.538Z,98643.63
2022-10-16T15:13:30.878Z,98643.91
2022-10-16T15:16:32.428Z,98631.53
2022-10-16T15:19:35.045Z,98633.66
2022-10-16T15:22:36.407Z,98631.88
2022-10-16T15:25:38.615Z,98633.84
2022-10-16T15:28:40.177Z,98622.94
2022-10-16T15:31:43.643Z,98623.50
2022-10-16T15:34:45.035Z,98620.38
2022-10-16T15:37:47.316Z,98625.81
2022-10-16T15:40:48.944Z,98615.34
2022-10-16T15:43:50.770Z,98612.47
2022-10-16T15:46:52.211Z,98601.91
2022-10-16T15:49:53.594Z,98596.25
2022-10-16T15:52:54.928Z,98593.31
2022-10-16T15:55:56.334Z,98589.13
2022-10-16T15:58:59.279Z,98590.22
2022-10-16T16:02:00.733Z,98581.09
2022-10-16T16:05:03.107Z,98575.25
2022-10-16T16:08:04.558Z,98569.53
2022-10-16T16:11:06.840Z,98569.69
2022-10-16T16:14:08.283Z,98566.38
2022-10-16T16:17:09.598Z,98554.66
2022-10-16T16:20:11.133Z,98549.16
2022-10-16T16:23:12.487Z,98541.25
2022-10-16T16:26:13.798Z,98539.69
2022-10-16T16:29:15.552Z,98534.50
2022-10-16T16:32:16.921Z,98529.56
2022-10-16T16:35:18.267Z,98519.09
2022-10-16T16:38:19.616Z,98514.31
2022-10-16T16:41:22.360Z,98511.03
2022-10-16T16:44:23.785Z,98514.81
2022-10-16T16:47:25.389Z,98512.47
2022-10-16T16:50:26.975Z,98515.25
2022-10-16T16:53:28.397Z,98512.91
2022-10-16T16:56:29.770Z,98514.91
2022-10-16T16:59:33.596Z,98518.66
2022-10-16T17:02:34.946Z,98522.50
2022-10-16T17:05:36.286Z,98526.25
2022-10-16T17:08:37.700Z,98532.56
2022-10-16T17:11:39.053Z,98528.41
2022-10-16T17:14:40.404Z,98530.63
2022-10-16T17:17:41.829Z,98541.16
2022-10-16T17:20:43.457Z,98535.09
2022-10-16T17:23:44.915Z,98528.53
2022-10-16T17:26:49.081Z,98535.75
2022-10-16T17:29:51.106Z,98541.03
2022-10-16T17:32:52.460Z,98538.63
2022-10-16T17:35:53.800Z,98537.97
2022-10-16T17:38:55.202Z,98536.34
2022-10-16T17:41:56.709Z,98535.53
2022-10-16T17:44:58.112Z,98540.00
2022-10-16T17:48:00.040Z,98547.03
2022-10-16T17:51:03.636Z,98552.53
2022-10-16T17:54:05.255Z,98553.56
2022-10-16T17:57:06.572Z,98544.09
2022-10-16T18:00:08.194Z,98556.56
2022-10-16T18:03:09.552Z,98555.81
2022-10-16T18:06:13.434Z,98565.63
2022-10-16T18:09:15.888Z,98565.69
2022-10-16T18:12:17.261Z,98568.50
2022-10-16T18:15:18.683Z,98570.31
2022-10-16T18:18:20.122Z,98576.53
2022-10-16T18:21:21.468Z,98579.28
2022-10-16T18:24:25.087Z,98577.66
2022-10-16T18:27:26.699Z,98583.88
2022-10-16T18:30:28.336Z,98583.19
2022-10-16T18:33:32.682Z,98578.88
2022-10-16T18:36:34.357Z,98579.84
2022-10-16T18:39:35.750Z,98580.75
2022-10-16T18:42:37.154Z,98569.47
2022-10-16T18:45:38.557Z,98579.16
2022-10-16T18:48:40.186Z,98581.78
2022-10-16T18:51:42.277Z,98579.22
2022-10-16T18:54:43.628Z,98584.53
2022-10-16T18:57:45.006Z,98582.88
2022-10-16T19:00:46.335Z,98588.13
2022-10-16T19:03:48.148Z,98583.91
2022-10-16T19:06:50.138Z,98592.69
2022-10-16T19:09:51.496Z,98589.28
2022-10-16T19:12:52.877Z,98601.63
2022-10-16T19:15:58.473Z,98606.03
2022-10-16T19:19:00.633Z,98604.31
2022-10-16T19:22:11.806Z,98598.25
2022-10-16T19:25:13.152Z,98615.75
2022-10-16T19:28:14.515Z,98614.91
2022-10-16T19:31:16.759Z,98612.25
2022-10-16T19:34:18.130Z,98618.41
2022-10-16T19:37:25.712Z,98620.22
2022-10-16T19:40:27.371Z,98625.50
2022-10-16T19:43:28.713Z,98631.66
2022-10-16T19:46:30.069Z,98634.47
2022-10-16T19:49:31.493Z,98637.25
2022-10-16T19:52:33.195Z,98640.78
2022-10-16T19:55:34.546Z,98646.09
2022-10-16T19:58:35.891Z,98649.56
2022-10-16T20:01:37.264Z,98650.41
2022-10-16T20:04:38.744Z,98653.16
2022-10-16T20:07:40.127Z,98662.84
2022-10-16T20:10:47.657Z,98661.16
2022-10-16T20:13:49.020Z,98659.47
2022-10-16T20:16:50.351Z,98662.13
2022-10-16T20:19:51.746Z,98661.25
2022-10-16T20:22:53.086Z,98670.00
2022-10-16T20:25:54.791Z,98669.16
2022-10-16T20:28:56.324Z,98677.94
2022-10-16T20:31:57.729Z,98679.72
2022-10-16T20:35:00.318Z,98678.88
2022-10-16T20:38:04.433Z,98683.25
2022-10-16T20:41:07.178Z,98678.97
2022-10-16T20:44:08.708Z,98688.63
2022-10-16T20:47:10.028Z,98687.75
2022-10-16T20:50:12.172Z,98695.59
2022-10-16T20:53:13.541Z,98689.53
2022-10-16T20:56:15.896Z,98690.41
2022-10-16T20:59:17.314Z,98686.06
2022-10-16T21:02:18.846Z,98686.06
2022-10-16T21:05:20.340Z,98686.97
2022-10-16T21:08:21.703Z,98689.59
2022-10-16T21:11:24.022Z,98691.41
2022-10-16T21:14:25.447Z,98697.53
2022-10-16T21:17:26.826Z,98693.22
2022-10-16T21:20:28.194Z,98694.09
2022-10-16T21:23:30.878Z,98696.72
2022-10-16T21:26:32.299Z,98697.59
2022-10-16T21:29:33.735Z,98695.88
2022-10-16T21:32:35.687Z,98695.94
2022-10-16T21:35:37.348Z,98706.47
2022-10-16T21:38:38.747Z,98705.66
2022-10-16T21:41:40.375Z,98705.66
2022-10-16T21:44:41.733Z,98699.56
2022-10-16T21:47:43.122Z,98699.59
2022-10-16T21:50:47.688Z,98702.22
2022-10-16T21:53:49.045Z,98692.63
2022-10-16T21:56:50.575Z,98698.78
2022-10-16T21:59:51.990Z,98702.28
2022-10-16T22:02:53.530Z,98697.06
2022-10-16T22:05:54.889Z,98693.63
2022-10-16T22:08:59.915Z,98694.50
2022-10-16T22:12:01.272Z,98697.13
2022-10-16T22:15:02.638Z,98700.69
2022-10-16T22:18:04.022Z,98697.19
2022-10-16T22:21:06.099Z,98701.53
2022-10-16T22:24:07.797Z,98700.69
2022-10-16T22:27:09.148Z,98696.38
2022-10-16T22:30:10.740Z,98705.13
2022-10-16T22:33:12.319Z,98697.28
2022-10-16T22:36:13.959Z,98710.38
2022-10-16T22:39:15.351Z,98705.16
2022-10-16T22:42:16.669Z,98708.63
2022-10-16T22:45:17.996Z,98706.91
2022-10-16T22:48:20.988Z,98713.06
2022-10-16T22:51:22.386Z,98714.81
2022-10-16T22:54:23.767Z,98709.63
2022-10-16T22:57:25.097Z,98713.06
2022-10-16T23:00:26.446Z,98719.22
2022-10-16T23:03:27.858Z,98720.94
2022-10-16T23:06:29.328Z,98723.59
2022-10-16T23:09:30.744Z,98723.59
2022-10-16T23:12:32.116Z,98731.47
2022-10-16T23:15:33.466Z,98731.47
2022-10-16T23:18:34.859Z,98730.59
2022-10-16T23:21:36.276Z,98736.72
2022-10-16T23:24:37.607Z,98743.69
2022-10-16T23:27:38.954Z,98734.97
2022-10-16T23:30:40.310Z,98740.22
2022-10-16T23:33:41.727Z,98735.84
2022-10-16T23:36:44.687Z,98736.72
2022-10-16T23:39:46.041Z,98738.47
2022-10-16T23:42:47.427Z,98748.03
2022-10-16T23:45:48.784Z,98741.09
2022-10-16T23:48:50.122Z,98745.47
2022-10-16T23:51:51.577Z,98745.44
2022-10-16T23:54:53.070Z,98740.25
2022-10-16T23:57:54.412Z,98746.31
